sensor_id;sensor_type;location;lat;lon;timestamp;pressure;altitude;pressure_sealevel;temperature;humidity
49827;BME280;35715;51.570;6.036;2023-09-12T00:00:51;101150.19;;;23.98;74.13
49827;BME280;35715;51.570;6.036;2023-09-12T00:03:20;101163.94;;;23.81;75.24
49827;BME280;35715;51.570;6.036;2023-09-12T00:05:52;101179.75;;;23.81;75.39
49827;BME280;35715;51.570;6.036;2023-09-12T00:08:17;101209.56;;;23.77;75.42
49827;BME280;35715;51.570;6.036;2023-09-12T00:10:42;101242.16;;;23.84;75.12
49827;BME280;35715;51.570;6.036;2023-09-12T00:13:08;101252.84;;;23.88;74.63
49827;BME280;35715;51.570;6.036;2023-09-12T00:15:33;101206.03;;;23.78;74.73
49827;BME280;35715;51.570;6.036;2023-09-12T00:17:58;101182.88;;;23.62;76.30
49827;BME280;35715;51.570;6.036;2023-09-12T00:20:24;101187.91;;;23.49;77.89
49827;BME280;35715;51.570;6.036;2023-09-12T00:22:49;101172.03;;;23.45;77.59
49827;BME280;35715;51.570;6.036;2023-09-12T00:25:14;101158.91;;;23.48;78.62
49827;BME280;35715;51.570;6.036;2023-09-12T00:27:39;101157.28;;;23.53;79.70
49827;BME280;35715;51.570;6.036;2023-09-12T00:30:05;101148.56;;;23.59;79.92
49827;BME280;35715;51.570;6.036;2023-09-12T00:32:30;101133.72;;;23.61;79.59
49827;BME280;35715;51.570;6.036;2023-09-12T00:34:55;101121.22;;;23.50;79.26
49827;BME280;35715;51.570;6.036;2023-09-12T00:37:20;101124.47;;;23.37;79.91
49827;BME280;35715;51.570;6.036;2023-09-12T00:39:46;101122.78;;;23.42;80.34
49827;BME280;35715;51.570;6.036;2023-09-12T00:42:12;101113.28;;;23.49;80.52
49827;BME280;35715;51.570;6.036;2023-09-12T00:44:37;101114.09;;;23.46;80.19
49827;BME280;35715;51.570;6.036;2023-09-12T00:47:03;101104.59;;;23.53;79.97
49827;BME280;35715;51.570;6.036;2023-09-12T00:49:28;101099.34;;;23.54;80.41
49827;BME280;35715;51.570;6.036;2023-09-12T00:51:54;101123.19;;;23.62;80.37
49827;BME280;35715;51.570;6.036;2023-09-12T00:54:21;101118.00;;;23.67;79.96
49827;BME280;35715;51.570;6.036;2023-09-12T00:56:47;101093.16;;;23.52;79.59
49827;BME280;35715;51.570;6.036;2023-09-12T00:59:13;101101.06;;;23.52;80.01
49827;BME280;35715;51.570;6.036;2023-09-12T01:01:40;101098.44;;;23.54;80.07
49827;BME280;35715;51.570;6.036;2023-09-12T01:04:05;101107.41;;;23.62;80.06
49827;BME280;35715;51.570;6.036;2023-09-12T01:06:31;101101.28;;;23.65;80.00
49827;BME280;35715;51.570;6.036;2023-09-12T01:08:57;101102.22;;;23.67;80.07
49827;BME280;35715;51.570;6.036;2023-09-12T01:11:22;101106.63;;;23.69;79.66
49827;BME280;35715;51.570;6.036;2023-09-12T01:13:47;101113.66;;;23.69;79.80
49827;BME280;35715;51.570;6.036;2023-09-12T01:16:13;101113.69;;;23.70;79.34
49827;BME280;35715;51.570;6.036;2023-09-12T01:18:38;101111.94;;;23.71;79.66
49827;BME280;35715;51.570;6.036;2023-09-12T01:23:44;101117.16;;;23.69;78.70
49827;BME280;35715;51.570;6.036;2023-09-12T01:29:02;101110.38;;;23.33;80.55
49827;BME280;35715;51.570;6.036;2023-09-12T01:31:29;101123.56;;;23.35;80.52
49827;BME280;35715;51.570;6.036;2023-09-12T01:33:55;101120.03;;;23.36;79.89
49827;BME280;35715;51.570;6.036;2023-09-12T01:36:20;101122.50;;;23.27;80.13
49827;BME280;35715;51.570;6.036;2023-09-12T01:38:46;101121.50;;;23.20;80.25
49827;BME280;35715;51.570;6.036;2023-09-12T01:41:11;101126.66;;;23.14;80.77
49827;BME280;35715;51.570;6.036;2023-09-12T01:43:37;101115.28;;;23.16;81.27
49827;BME280;35715;51.570;6.036;2023-09-12T01:46:04;101111.72;;;23.14;80.58
49827;BME280;35715;51.570;6.036;2023-09-12T01:48:31;101098.50;;;23.11;81.20
49827;BME280;35715;51.570;6.036;2023-09-12T01:50:58;101106.41;;;23.11;80.95
49827;BME280;35715;51.570;6.036;2023-09-12T01:53:24;101103.78;;;23.11;81.30
49827;BME280;35715;51.570;6.036;2023-09-12T01:55:49;101112.53;;;23.12;80.95
49827;BME280;35715;51.570;6.036;2023-09-12T01:58:14;101108.19;;;23.12;81.15
49827;BME280;35715;51.570;6.036;2023-09-12T02:00:40;101097.66;;;23.12;80.83
49827;BME280;35715;51.570;6.036;2023-09-12T02:03:06;101092.34;;;23.09;80.42
49827;BME280;35715;51.570;6.036;2023-09-12T02:05:31;101096.59;;;23.06;80.62
49827;BME280;35715;51.570;6.036;2023-09-12T02:07:57;101094.81;;;23.03;81.09
49827;BME280;35715;51.570;6.036;2023-09-12T02:10:24;101100.97;;;23.05;81.19
49827;BME280;35715;51.570;6.036;2023-09-12T02:12:49;101105.44;;;23.08;80.99
49827;BME280;35715;51.570;6.036;2023-09-12T02:15:15;101120.28;;;23.06;80.76
49827;BME280;35715;51.570;6.036;2023-09-12T02:17:40;101122.94;;;23.07;81.23
49827;BME280;35715;51.570;6.036;2023-09-12T02:20:06;101116.84;;;23.08;81.51
49827;BME280;35715;51.570;6.036;2023-09-12T02:22:32;101113.22;;;23.03;80.78
49827;BME280;35715;51.570;6.036;2023-09-12T02:24:57;101118.44;;;23.00;81.06
49827;BME280;35715;51.570;6.036;2023-09-12T02:27:22;101113.94;;;22.96;80.75
49827;BME280;35715;51.570;6.036;2023-09-12T02:29:48;101119.22;;;22.96;81.13
49827;BME280;35715;51.570;6.036;2023-09-12T02:32:13;101119.19;;;22.94;80.72
49827;BME280;35715;51.570;6.036;2023-09-12T02:34:39;101125.19;;;22.89;80.57
49827;BME280;35715;51.570;6.036;2023-09-12T02:37:04;101129.50;;;22.85;80.92
49827;BME280;35715;51.570;6.036;2023-09-12T02:39:29;101123.34;;;22.84;81.60
49827;BME280;35715;51.570;6.036;2023-09-12T02:41:54;101125.91;;;22.81;81.34
49827;BME280;35715;51.570;6.036;2023-09-12T02:44:19;101132.00;;;22.79;80.87
49827;BME280;35715;51.570;6.036;2023-09-12T02:46:45;101134.63;;;22.77;81.22
49827;BME280;35715;51.570;6.036;2023-09-12T02:49:10;101134.56;;;22.76;81.21
49827;BME280;35715;51.570;6.036;2023-09-12T02:51:39;101133.56;;;22.71;80.80
49827;BME280;35715;51.570;6.036;2023-09-12T02:54:04;101136.09;;;22.66;81.48
49827;BME280;35715;51.570;6.036;2023-09-12T02:56:35;101131.75;;;22.66;81.52
49827;BME280;35715;51.570;6.036;2023-09-12T02:59:00;101133.50;;;22.67;81.70
49827;BME280;35715;51.570;6.036;2023-09-12T03:01:25;101131.78;;;22.68;81.53
49827;BME280;35715;51.570;6.036;2023-09-12T03:03:52;101136.06;;;22.64;82.09
49827;BME280;35715;51.570;6.036;2023-09-12T03:06:18;101122.88;;;22.63;82.05
49827;BME280;35715;51.570;6.036;2023-09-12T03:08:43;101118.38;;;22.59;81.74
49827;BME280;35715;51.570;6.036;2023-09-12T03:11:09;101118.28;;;22.54;81.71
49827;BME280;35715;51.570;6.036;2023-09-12T03:13:35;101106.75;;;22.47;81.47
49827;BME280;35715;51.570;6.036;2023-09-12T03:16:01;101105.69;;;22.39;82.22
49827;BME280;35715;51.570;6.036;2023-09-12T03:18:26;101110.81;;;22.35;82.01
49827;BME280;35715;51.570;6.036;2023-09-12T03:20:51;101109.03;;;22.32;82.33
49827;BME280;35715;51.570;6.036;2023-09-12T03:23:16;101107.16;;;22.29;82.00
49827;BME280;35715;51.570;6.036;2023-09-12T03:25:42;101110.56;;;22.25;81.88
49827;BME280;35715;51.570;6.036;2023-09-12T03:28:07;101104.38;;;22.22;82.21
49827;BME280;35715;51.570;6.036;2023-09-12T03:30:33;101099.00;;;22.17;82.09
49827;BME280;35715;51.570;6.036;2023-09-12T03:32:58;101093.66;;;22.14;82.30
49827;BME280;35715;51.570;6.036;2023-09-12T03:35:24;101091.84;;;22.11;82.68
49827;BME280;35715;51.570;6.036;2023-09-12T03:37:49;101085.72;;;22.11;82.60
49827;BME280;35715;51.570;6.036;2023-09-12T03:40:14;101080.38;;;22.08;82.51
49827;BME280;35715;51.570;6.036;2023-09-12T03:42:40;101074.22;;;22.07;82.62
49827;BME280;35715;51.570;6.036;2023-09-12T03:45:05;101067.22;;;22.06;82.35
49827;BME280;35715;51.570;6.036;2023-09-12T03:47:31;101066.28;;;22.06;82.01
49827;BME280;35715;51.570;6.036;2023-09-12T03:49:56;101072.47;;;22.06;82.24
49827;BME280;35715;51.570;6.036;2023-09-12T03:52:22;101066.34;;;22.07;82.68
49827;BME280;35715;51.570;6.036;2023-09-12T03:54:48;101062.00;;;22.08;82.78
49827;BME280;35715;51.570;6.036;2023-09-12T03:57:13;101061.06;;;22.07;82.72
49827;BME280;35715;51.570;6.036;2023-09-12T03:59:38;101064.56;;;22.06;82.87
49827;BME280;35715;51.570;6.036;2023-09-12T04:02:03;101066.28;;;22.06;82.51
49827;BME280;35715;51.570;6.036;2023-09-12T04:04:29;101067.16;;;22.05;82.65
49827;BME280;35715;51.570;6.036;2023-09-12T04:06:54;101056.63;;;22.03;82.55
49827;BME280;35715;51.570;6.036;2023-09-12T04:09:20;101059.25;;;22.03;82.71
49827;BME280;35715;51.570;6.036;2023-09-12T04:11:46;101058.38;;;22.04;82.78
49827;BME280;35715;51.570;6.036;2023-09-12T04:14:13;101056.63;;;22.03;82.44
49827;BME280;35715;51.570;6.036;2023-09-12T04:16:38;101065.38;;;22.04;82.45
49827;BME280;35715;51.570;6.036;2023-09-12T04:19:03;101059.25;;;22.03;82.30
49827;BME280;35715;51.570;6.036;2023-09-12T04:21:29;101062.69;;;22.01;82.41
49827;BME280;35715;51.570;6.036;2023-09-12T04:23:54;101066.16;;;22.00;82.63
49827;BME280;35715;51.570;6.036;2023-09-12T04:26:19;101062.59;;;21.97;82.56
49827;BME280;35715;51.570;6.036;2023-09-12T04:28:46;101072.19;;;21.95;82.80
49827;BME280;35715;51.570;6.036;2023-09-12T04:31:12;101069.53;;;21.94;82.76
49827;BME280;35715;51.570;6.036;2023-09-12T04:33:37;101061.63;;;21.92;82.87
49827;BME280;35715;51.570;6.036;2023-09-12T04:36:03;101069.53;;;21.94;83.28
49827;BME280;35715;51.570;6.036;2023-09-12T04:38:28;101067.75;;;21.93;83.39
49827;BME280;35715;51.570;6.036;2023-09-12T04:40:57;101075.66;;;21.94;83.53
49827;BME280;35715;51.570;6.036;2023-09-12T04:43:33;101070.31;;;21.90;83.38
49827;BME280;35715;51.570;6.036;2023-09-12T04:45:58;101072.84;;;21.87;83.11
49827;BME280;35715;51.570;6.036;2023-09-12T04:48:24;101065.75;;;21.83;82.99
49827;BME280;35715;51.570;6.036;2023-09-12T04:50:49;101072.72;;;21.80;83.18
49827;BME280;35715;51.570;6.036;2023-09-12T04:53:14;101071.75;;;21.78;83.13
49827;BME280;35715;51.570;6.036;2023-09-12T04:55:40;101081.34;;;21.76;83.21
49827;BME280;35715;51.570;6.036;2023-09-12T04:58:05;101078.66;;;21.73;83.21
49827;BME280;35715;51.570;6.036;2023-09-12T05:00:32;101086.53;;;21.73;83.18
49827;BME280;35715;51.570;6.036;2023-09-12T05:03:01;101097.78;;;21.69;83.06
49827;BME280;35715;51.570;6.036;2023-09-12T05:05:27;101098.63;;;21.67;82.80
49827;BME280;35715;51.570;6.036;2023-09-12T05:07:52;101104.63;;;21.62;83.11
49827;BME280;35715;51.570;6.036;2023-09-12T05:10:20;101104.47;;;21.56;83.38
49827;BME280;35715;51.570;6.036;2023-09-12T05:12:46;101099.97;;;21.52;83.54
49827;BME280;35715;51.570;6.036;2023-09-12T05:15:11;101107.84;;;21.52;83.69
49827;BME280;35715;51.570;6.036;2023-09-12T05:17:36;101108.69;;;21.51;83.58
49827;BME280;35715;51.570;6.036;2023-09-12T05:20:02;101099.97;;;21.52;83.55
49827;BME280;35715;51.570;6.036;2023-09-12T05:22:27;101100.84;;;21.53;83.79
49827;BME280;35715;51.570;6.036;2023-09-12T05:24:53;101091.25;;;21.53;83.83
49827;BME280;35715;51.570;6.036;2023-09-12T05:27:19;101089.56;;;21.55;84.04
49827;BME280;35715;51.570;6.036;2023-09-12T05:29:44;101093.97;;;21.56;84.25
49827;BME280;35715;51.570;6.036;2023-09-12T05:32:09;101102.75;;;21.58;84.20
49827;BME280;35715;51.570;6.036;2023-09-12T05:34:34;101102.81;;;21.60;84.41
49827;BME280;35715;51.570;6.036;2023-09-12T05:36:59;101115.09;;;21.61;84.59
49827;BME280;35715;51.570;6.036;2023-09-12T05:39:25;101111.66;;;21.64;84.41
49827;BME280;35715;51.570;6.036;2023-09-12T05:41:50;101123.09;;;21.66;84.82
49827;BME280;35715;51.570;6.036;2023-09-12T05:44:15;101133.59;;;21.66;84.54
49827;BME280;35715;51.570;6.036;2023-09-12T05:46:47;101132.72;;;21.65;85.00
49827;BME280;35715;51.570;6.036;2023-09-12T05:49:13;101122.16;;;21.64;85.35
49827;BME280;35715;51.570;6.036;2023-09-12T05:51:38;101131.81;;;21.65;85.34
49827;BME280;35715;51.570;6.036;2023-09-12T05:54:06;101120.38;;;21.62;85.75
49827;BME280;35715;51.570;6.036;2023-09-12T05:56:33;101125.59;;;21.61;85.05
49827;BME280;35715;51.570;6.036;2023-09-12T05:58:58;101138.66;;;21.58;85.52
49827;BME280;35715;51.570;6.036;2023-09-12T06:01:23;101137.72;;;21.57;85.93
49827;BME280;35715;51.570;6.036;2023-09-12T06:03:48;101135.06;;;21.56;85.67
49827;BME280;35715;51.570;6.036;2023-09-12T06:06:14;101141.94;;;21.51;85.10
49827;BME280;35715;51.570;6.036;2023-09-12T06:08:42;101137.56;;;21.51;85.92
49827;BME280;35715;51.570;6.036;2023-09-12T06:11:07;101141.19;;;21.55;85.33
49827;BME280;35715;51.570;6.036;2023-09-12T06:13:32;101147.31;;;21.55;85.47
49827;BME280;35715;51.570;6.036;2023-09-12T06:15:58;101137.59;;;21.53;85.41
49827;BME280;35715;51.570;6.036;2023-09-12T06:18:23;101136.81;;;21.55;86.05
49827;BME280;35715;51.570;6.036;2023-09-12T06:20:49;101143.69;;;21.50;86.44
49827;BME280;35715;51.570;6.036;2023-09-12T06:23:14;101135.66;;;21.45;86.40
49827;BME280;35715;51.570;6.036;2023-09-12T06:25:40;101143.34;;;21.39;86.73
49827;BME280;35715;51.570;6.036;2023-09-12T06:28:05;101130.03;;;21.33;88.13
49827;BME280;35715;51.570;6.036;2023-09-12T06:30:30;101126.63;;;21.36;87.38
49827;BME280;35715;51.570;6.036;2023-09-12T06:32:55;101134.66;;;21.42;87.70
49827;BME280;35715;51.570;6.036;2023-09-12T06:35:21;101131.25;;;21.44;88.01
49827;BME280;35715;51.570;6.036;2023-09-12T06:37:46;101125.91;;;21.41;87.90
49827;BME280;35715;51.570;6.036;2023-09-12T06:40:12;101126.78;;;21.42;87.46
49827;BME280;35715;51.570;6.036;2023-09-12T06:42:37;101128.44;;;21.38;88.22
49827;BME280;35715;51.570;6.036;2023-09-12T06:45:03;101133.59;;;21.35;88.17
49827;BME280;35715;51.570;6.036;2023-09-12T06:47:28;101140.69;;;21.38;87.99
49827;BME280;35715;51.570;6.036;2023-09-12T06:49:54;101128.38;;;21.35;88.38
49827;BME280;35715;51.570;6.036;2023-09-12T06:52:19;101125.66;;;21.32;88.21
49827;BME280;35715;51.570;6.036;2023-09-12T06:54:44;101125.56;;;21.29;88.18
49827;BME280;35715;51.570;6.036;2023-09-12T06:57:09;101134.06;;;21.20;89.41
49827;BME280;35715;51.570;6.036;2023-09-12T06:59:35;101140.97;;;21.17;88.86
49827;BME280;35715;51.570;6.036;2023-09-12T07:02:00;101137.47;;;21.18;88.97
49827;BME280;35715;51.570;6.036;2023-09-12T07:04:25;101144.63;;;21.23;89.25
49827;BME280;35715;51.570;6.036;2023-09-12T07:06:50;101143.13;;;21.32;89.52
49827;BME280;35715;51.570;6.036;2023-09-12T07:09:16;101131.72;;;21.31;89.49
49827;BME280;35715;51.570;6.036;2023-09-12T07:11:41;101138.81;;;21.34;89.12
49827;BME280;35715;51.570;6.036;2023-09-12T07:14:07;101136.22;;;21.35;89.40
49827;BME280;35715;51.570;6.036;2023-09-12T07:16:33;101135.44;;;21.38;89.62
49827;BME280;35715;51.570;6.036;2023-09-12T07:18:58;101143.44;;;21.42;90.09
49827;BME280;35715;51.570;6.036;2023-09-12T07:21:24;101142.66;;;21.47;89.58
49827;BME280;35715;51.570;6.036;2023-09-12T07:23:49;101136.69;;;21.51;89.44
49827;BME280;35715;51.570;6.036;2023-09-12T07:26:15;101142.97;;;21.57;89.48
49827;BME280;35715;51.570;6.036;2023-09-12T07:28:40;101152.78;;;21.63;89.45
49827;BME280;35715;51.570;6.036;2023-09-12T07:31:06;101143.34;;;21.70;89.39
49827;BME280;35715;51.570;6.036;2023-09-12T07:33:33;101144.25;;;21.72;89.29
49827;BME280;35715;51.570;6.036;2023-09-12T07:35:59;101141.72;;;21.75;89.87
49827;BME280;35715;51.570;6.036;2023-09-12T07:38:24;101149.59;;;21.75;89.50
49827;BME280;35715;51.570;6.036;2023-09-12T07:40:50;101147.13;;;21.81;89.52
49827;BME280;35715;51.570;6.036;2023-09-12T07:43:15;101149.03;;;21.87;89.06
49827;BME280;35715;51.570;6.036;2023-09-12T07:45:40;101144.03;;;21.96;89.79
49827;BME280;35715;51.570;6.036;2023-09-12T07:48:06;101128.34;;;21.99;89.77
49827;BME280;35715;51.570;6.036;2023-09-12T07:50:32;101131.03;;;22.02;89.13
49827;BME280;35715;51.570;6.036;2023-09-12T07:52:57;101145.13;;;22.06;89.30
49827;BME280;35715;51.570;6.036;2023-09-12T07:55:22;101151.38;;;22.09;89.60
49827;BME280;35715;51.570;6.036;2023-09-12T07:57:47;101151.44;;;22.12;88.91
49827;BME280;35715;51.570;6.036;2023-09-12T08:00:13;101143.72;;;22.19;88.62
49827;BME280;35715;51.570;6.036;2023-09-12T08:02:38;101149.03;;;22.22;88.44
49827;BME280;35715;51.570;6.036;2023-09-12T08:05:04;101157.09;;;22.28;88.38
49827;BME280;35715;51.570;6.036;2023-09-12T08:07:29;101161.41;;;22.61;88.46
49827;BME280;35715;51.570;6.036;2023-09-12T08:09:58;101164.41;;;22.76;87.45
49827;BME280;35715;51.570;6.036;2023-09-12T08:12:23;101148.78;;;22.84;86.83
49827;BME280;35715;51.570;6.036;2023-09-12T08:14:49;101151.59;;;22.93;86.06
49827;BME280;35715;51.570;6.036;2023-09-12T08:17:14;101151.03;;;23.07;86.03
49827;BME280;35715;51.570;6.036;2023-09-12T08:19:40;101155.34;;;23.44;84.82
49827;BME280;35715;51.570;6.036;2023-09-12T08:22:05;101156.13;;;23.40;84.42
49827;BME280;35715;51.570;6.036;2023-09-12T08:24:31;101149.66;;;24.17;83.12
49827;BME280;35715;51.570;6.036;2023-09-12T08:26:56;101148.81;;;25.41;80.37
49827;BME280;35715;51.570;6.036;2023-09-12T08:29:24;101154.31;;;25.59;78.19
49827;BME280;35715;51.570;6.036;2023-09-12T08:31:49;101147.53;;;27.00;74.65
49827;BME280;35715;51.570;6.036;2023-09-12T08:34:15;101153.13;;;28.14;71.72
49827;BME280;35715;51.570;6.036;2023-09-12T08:36:40;101163.69;;;28.88;69.51
49827;BME280;35715;51.570;6.036;2023-09-12T08:39:05;101155.41;;;29.59;67.41
49827;BME280;35715;51.570;6.036;2023-09-12T08:41:33;101158.31;;;30.46;64.47
49827;BME280;35715;51.570;6.036;2023-09-12T08:43:59;101156.22;;;30.77;62.65
49827;BME280;35715;51.570;6.036;2023-09-12T08:46:25;101158.25;;;30.57;62.81
49827;BME280;35715;51.570;6.036;2023-09-12T08:48:50;101166.16;;;31.41;60.04
49827;BME280;35715;51.570;6.036;2023-09-12T08:51:16;101163.50;;;30.65;60.22
49827;BME280;35715;51.570;6.036;2023-09-12T08:53:41;101174.78;;;30.87;60.62
49827;BME280;35715;51.570;6.036;2023-09-12T08:56:06;101185.50;;;30.81;59.51
49827;BME280;35715;51.570;6.036;2023-09-12T08:58:32;101202.75;;;30.44;60.34
49827;BME280;35715;51.570;6.036;2023-09-12T09:00:58;101204.63;;;31.20;58.59
49827;BME280;35715;51.570;6.036;2023-09-12T09:03:24;101214.31;;;31.28;58.20
49827;BME280;35715;51.570;6.036;2023-09-12T09:05:51;101220.47;;;30.48;58.61
49827;BME280;35715;51.570;6.036;2023-09-12T09:08:16;101215.31;;;30.19;59.29
49827;BME280;35715;51.570;6.036;2023-09-12T09:10:54;101212.50;;;31.30;55.85
49827;BME280;35715;51.570;6.036;2023-09-12T09:13:19;101211.09;;;30.95;55.90
49827;BME280;35715;51.570;6.036;2023-09-12T09:15:44;101219.69;;;30.31;57.96
49827;BME280;35715;51.570;6.036;2023-09-12T09:18:09;101221.81;;;30.91;55.58
49827;BME280;35715;51.570;6.036;2023-09-12T09:20:37;101227.34;;;31.50;56.11
49827;BME280;35715;51.570;6.036;2023-09-12T09:23:09;101213.59;;;32.42;52.11
49827;BME280;35715;51.570;6.036;2023-09-12T09:25:35;101218.41;;;33.18;50.16
49827;BME280;35715;51.570;6.036;2023-09-12T09:28:15;101210.38;;;33.62;49.76
49827;BME280;35715;51.570;6.036;2023-09-12T09:30:41;101213.09;;;33.60;47.21
49827;BME280;35715;51.570;6.036;2023-09-12T09:33:07;101199.34;;;33.36;49.79
49827;BME280;35715;51.570;6.036;2023-09-12T09:35:33;101198.00;;;33.97;49.97
49827;BME280;35715;51.570;6.036;2023-09-12T09:37:58;101196.25;;;33.55;49.87
49827;BME280;35715;51.570;6.036;2023-09-12T09:40:23;101190.50;;;33.33;48.85
49827;BME280;35715;51.570;6.036;2023-09-12T09:42:53;101194.13;;;33.30;50.10
49827;BME280;35715;51.570;6.036;2023-09-12T09:45:18;101193.00;;;32.97;48.76
49827;BME280;35715;51.570;6.036;2023-09-12T09:47:43;101187.94;;;31.75;51.23
49827;BME280;35715;51.570;6.036;2023-09-12T09:50:10;101181.97;;;32.15;51.51
49827;BME280;35715;51.570;6.036;2023-09-12T09:52:38;101187.72;;;32.44;49.16
49827;BME280;35715;51.570;6.036;2023-09-12T09:55:06;101189.00;;;32.72;48.37
49827;BME280;35715;51.570;6.036;2023-09-12T09:57:36;101193.72;;;31.38;51.61
49827;BME280;35715;51.570;6.036;2023-09-12T10:00:01;101185.06;;;30.32;52.43
49827;BME280;35715;51.570;6.036;2023-09-12T10:02:33;101183.19;;;30.47;53.41
49827;BME280;35715;51.570;6.036;2023-09-12T10:05:03;101189.78;;;30.95;52.89
49827;BME280;35715;51.570;6.036;2023-09-12T10:07:30;101189.38;;;31.96;50.14
49827;BME280;35715;51.570;6.036;2023-09-12T10:09:57;101200.41;;;31.02;50.73
49827;BME280;35715;51.570;6.036;2023-09-12T10:12:23;101195.06;;;29.99;52.07
49827;BME280;35715;51.570;6.036;2023-09-12T10:14:49;101193.72;;;29.23;54.75
49827;BME280;35715;51.570;6.036;2023-09-12T10:17:14;101192.00;;;28.92;55.93
49827;BME280;35715;51.570;6.036;2023-09-12T10:19:43;101191.16;;;28.56;56.63
49827;BME280;35715;51.570;6.036;2023-09-12T10:22:15;101191.19;;;28.30;57.54
49827;BME280;35715;51.570;6.036;2023-09-12T10:24:42;101193.81;;;28.14;58.66
49827;BME280;35715;51.570;6.036;2023-09-12T10:27:08;101192.91;;;27.94;58.25
49827;BME280;35715;51.570;6.036;2023-09-12T10:29:34;101199.06;;;27.91;59.12
49827;BME280;35715;51.570;6.036;2023-09-12T10:32:00;101190.28;;;28.49;56.87
49827;BME280;35715;51.570;6.036;2023-09-12T10:34:28;101188.97;;;29.80;55.59
49827;BME280;35715;51.570;6.036;2023-09-12T10:36:55;101185.31;;;31.01;53.00
49827;BME280;35715;51.570;6.036;2023-09-12T10:39:22;101189.81;;;31.65;51.77
49827;BME280;35715;51.570;6.036;2023-09-12T10:41:48;101192.16;;;31.87;48.86
49827;BME280;35715;51.570;6.036;2023-09-12T10:44:17;101183.25;;;31.88;48.39
49827;BME280;35715;51.570;6.036;2023-09-12T10:46:43;101174.97;;;32.05;50.79
49827;BME280;35715;51.570;6.036;2023-09-12T10:49:09;101180.63;;;31.20;50.75
49827;BME280;35715;51.570;6.036;2023-09-12T10:51:41;101177.78;;;30.56;52.45
49827;BME280;35715;51.570;6.036;2023-09-12T10:54:06;101178.16;;;30.08;53.80
49827;BME280;35715;51.570;6.036;2023-09-12T10:56:35;101183.66;;;29.80;53.94
49827;BME280;35715;51.570;6.036;2023-09-12T11:01:31;101171.91;;;30.14;53.25
49827;BME280;35715;51.570;6.036;2023-09-12T11:03:57;101166.56;;;31.07;50.50
49827;BME280;35715;51.570;6.036;2023-09-12T11:06:23;101163.22;;;32.18;49.28
49827;BME280;35715;51.570;6.036;2023-09-12T11:09:15;101164.66;;;33.32;46.60
49827;BME280;35715;51.570;6.036;2023-09-12T11:11:38;101163.09;;;34.37;45.31
49827;BME280;35715;51.570;6.036;2023-09-12T11:14:04;101152.91;;;34.14;44.99
49827;BME280;35715;51.570;6.036;2023-09-12T11:16:29;101160.47;;;33.98;45.49
49827;BME280;35715;51.570;6.036;2023-09-12T11:19:16;101162.66;;;34.53;44.63
49827;BME280;35715;51.570;6.036;2023-09-12T11:21:41;101155.41;;;34.89;42.92
49827;BME280;35715;51.570;6.036;2023-09-12T11:24:07;101157.06;;;34.95;43.23
49827;BME280;35715;51.570;6.036;2023-09-12T11:26:33;101154.78;;;35.11;42.69
49827;BME280;35715;51.570;6.036;2023-09-12T11:29:10;101151.63;;;35.26;42.13
49827;BME280;35715;51.570;6.036;2023-09-12T11:31:35;101156.19;;;35.54;41.69
49827;BME280;35715;51.570;6.036;2023-09-12T11:34:02;101161.91;;;35.12;41.74
49827;BME280;35715;51.570;6.036;2023-09-12T11:36:28;101166.69;;;35.32;40.68
49827;BME280;35715;51.570;6.036;2023-09-12T11:38:53;101157.19;;;33.85;43.44
49827;BME280;35715;51.570;6.036;2023-09-12T11:41:38;101163.47;;;33.86;42.21
49827;BME280;35715;51.570;6.036;2023-09-12T11:44:04;101166.47;;;33.69;42.65
49827;BME280;35715;51.570;6.036;2023-09-12T11:46:31;101164.19;;;33.92;42.40
49827;BME280;35715;51.570;6.036;2023-09-12T11:48:57;101156.91;;;34.34;42.24
49827;BME280;35715;51.570;6.036;2023-09-12T11:51:26;101166.41;;;34.09;42.18
49827;BME280;35715;51.570;6.036;2023-09-12T11:53:52;101170.31;;;33.58;41.42
49827;BME280;35715;51.570;6.036;2023-09-12T11:56:18;101172.28;;;33.50;43.00
49827;BME280;35715;51.570;6.036;2023-09-12T11:58:43;101165.59;;;34.07;42.50
49827;BME280;35715;51.570;6.036;2023-09-12T12:01:09;101162.13;;;34.38;41.41
49827;BME280;35715;51.570;6.036;2023-09-12T12:03:39;101161.56;;;34.27;41.58
49827;BME280;35715;51.570;6.036;2023-09-12T12:06:04;101159.72;;;33.12;42.11
49827;BME280;35715;51.570;6.036;2023-09-12T12:08:30;101174.28;;;33.40;43.16
49827;BME280;35715;51.570;6.036;2023-09-12T12:10:56;101170.59;;;33.45;43.15
49827;BME280;35715;51.570;6.036;2023-09-12T12:13:23;101174.09;;;33.06;43.08
49827;BME280;35715;51.570;6.036;2023-09-12T12:15:48;101173.25;;;32.57;42.82
49827;BME280;35715;51.570;6.036;2023-09-12T12:18:14;101167.25;;;32.43;43.21
49827;BME280;35715;51.570;6.036;2023-09-12T12:20:39;101172.09;;;31.63;43.76
49827;BME280;35715;51.570;6.036;2023-09-12T12:23:05;101162.63;;;31.39;44.48
49827;BME280;35715;51.570;6.036;2023-09-12T12:25:33;101169.84;;;31.29;44.45
49827;BME280;35715;51.570;6.036;2023-09-12T12:27:59;101156.78;;;31.76;42.29
49827;BME280;35715;51.570;6.036;2023-09-12T12:30:25;101158.19;;;31.98;42.67
49827;BME280;35715;51.570;6.036;2023-09-12T12:32:50;101161.66;;;32.03;41.99
49827;BME280;35715;51.570;6.036;2023-09-12T12:35:19;101156.19;;;32.13;42.26
49827;BME280;35715;51.570;6.036;2023-09-12T12:37:44;101154.41;;;32.15;42.47
49827;BME280;35715;51.570;6.036;2023-09-12T12:40:13;101151.31;;;31.83;43.10
49827;BME280;35715;51.570;6.036;2023-09-12T12:42:39;101148.84;;;31.71;42.96
49827;BME280;35715;51.570;6.036;2023-09-12T12:45:25;101158.22;;;31.35;43.40
49827;BME280;35715;51.570;6.036;2023-09-12T12:47:50;101148.00;;;31.01;43.88
49827;BME280;35715;51.570;6.036;2023-09-12T12:50:16;101158.19;;;30.63;43.40
49827;BME280;35715;51.570;6.036;2023-09-12T12:52:45;101149.44;;;30.47;44.71